sensor_id;sensor_type;location;lat;lon;timestamp;P1;durP1;ratioP1;P2;durP2;ratioP2
71947;SDS011;63257;55.082;38.772;2022-09-30T00:01:49;33.28;;;13.07;;
71947;SDS011;63257;55.082;38.772;2022-09-30T00:04:16;33.08;;;12.90;;
71947;SDS011;63257;55.082;38.772;2022-09-30T00:06:47;33.78;;;13.13;;
71947;SDS011;63257;55.082;38.772;2022-09-30T00:09:14;215.30;;;22.48;;
71947;SDS011;63257;55.082;38.772;2022-09-30T00:11:40;136.03;;;18.23;;
71947;SDS011;63257;55.082;38.772;2022-09-30T00:14:11;43.30;;;12.55;;
71947;SDS011;63257;55.082;38.772;2022-09-30T00:16:40;98.10;;;15.18;;
71947;SDS011;63257;55.082;38.772;2022-09-30T00:19:07;74.65;;;14.18;;
71947;SDS011;63257;55.082;38.772;2022-09-30T00:21:33;43.60;;;13.90;;
71947;SDS011;63257;55.082;38.772;2022-09-30T00:23:59;49.67;;;13.00;;
71947;SDS011;63257;55.082;38.772;2022-09-30T00:26:25;59.28;;;14.13;;
71947;SDS011;63257;55.082;38.772;2022-09-30T00:28:54;115.97;;;15.55;;
71947;SDS011;63257;55.082;38.772;2022-09-30T00:31:23;40.22;;;13.90;;
71947;SDS011;63257;55.082;38.772;2022-09-30T00:33:50;44.20;;;13.33;;
71947;SDS011;63257;55.082;38.772;2022-09-30T00:36:34;41.20;;;12.95;;
71947;SDS011;63257;55.082;38.772;2022-09-30T00:39:21;66.57;;;13.43;;
71947;SDS011;63257;55.082;38.772;2022-09-30T00:41:51;58.70;;;13.32;;
71947;SDS011;63257;55.082;38.772;2022-09-30T00:47:30;53.53;;;13.50;;
71947;SDS011;63257;55.082;38.772;2022-09-30T00:50:13;92.03;;;14.18;;
71947;SDS011;63257;55.082;38.772;2022-09-30T00:53:03;75.93;;;14.27;;
71947;SDS011;63257;55.082;38.772;2022-09-30T00:55:43;73.22;;;15.13;;
71947;SDS011;63257;55.082;38.772;2022-09-30T00:58:24;55.58;;;12.52;;
71947;SDS011;63257;55.082;38.772;2022-09-30T01:00:51;53.17;;;13.20;;
71947;SDS011;63257;55.082;38.772;2022-09-30T01:03:18;61.85;;;13.02;;
71947;SDS011;63257;55.082;38.772;2022-09-30T01:05:47;80.53;;;13.48;;
71947;SDS011;63257;55.082;38.772;2022-09-30T01:08:14;68.75;;;12.73;;
71947;SDS011;63257;55.082;38.772;2022-09-30T01:10:43;40.63;;;12.88;;
71947;SDS011;63257;55.082;38.772;2022-09-30T01:13:12;50.47;;;13.23;;
71947;SDS011;63257;55.082;38.772;2022-09-30T01:18:20;61.50;;;13.07;;
71947;SDS011;63257;55.082;38.772;2022-09-30T01:40:45;67.00;;;16.00;;
71947;SDS011;63257;55.082;38.772;2022-09-30T01:51:37;46.30;;;14.93;;
71947;SDS011;63257;55.082;38.772;2022-09-30T01:56:56;39.55;;;11.85;;
71947;SDS011;63257;55.082;38.772;2022-09-30T01:59:31;38.67;;;12.98;;
71947;SDS011;63257;55.082;38.772;2022-09-30T02:02:12;33.97;;;12.38;;
71947;SDS011;63257;55.082;38.772;2022-09-30T02:04:49;78.18;;;13.77;;
71947;SDS011;63257;55.082;38.772;2022-09-30T02:07:21;51.13;;;12.17;;
71947;SDS011;63257;55.082;38.772;2022-09-30T02:09:55;49.00;;;11.38;;
71947;SDS011;63257;55.082;38.772;2022-09-30T02:12:29;53.75;;;13.05;;
71947;SDS011;63257;55.082;38.772;2022-09-30T02:15:01;57.38;;;12.45;;
71947;SDS011;63257;55.082;38.772;2022-09-30T02:17:38;48.97;;;12.20;;
71947;SDS011;63257;55.082;38.772;2022-09-30T02:20:12;41.53;;;13.23;;
71947;SDS011;63257;55.082;38.772;2022-09-30T02:22:44;54.67;;;12.70;;
71947;SDS011;63257;55.082;38.772;2022-09-30T02:25:19;59.10;;;12.77;;
71947;SDS011;63257;55.082;38.772;2022-09-30T02:27:58;47.78;;;12.02;;
71947;SDS011;63257;55.082;38.772;2022-09-30T02:30:27;170.05;;;16.95;;
71947;SDS011;63257;55.082;38.772;2022-09-30T02:33:04;34.83;;;10.97;;
71947;SDS011;63257;55.082;38.772;2022-09-30T02:36:09;221.13;;;20.67;;
71947;SDS011;63257;55.082;38.772;2022-09-30T02:38:37;46.85;;;11.07;;
71947;SDS011;63257;55.082;38.772;2022-09-30T02:41:13;27.98;;;10.07;;
71947;SDS011;63257;55.082;38.772;2022-09-30T02:43:47;27.17;;;10.05;;
71947;SDS011;63257;55.082;38.772;2022-09-30T02:46:21;31.37;;;10.03;;
71947;SDS011;63257;55.082;38.772;2022-09-30T02:51:39;24.88;;;9.82;;
71947;SDS011;63257;55.082;38.772;2022-09-30T02:56:54;28.58;;;10.10;;
71947;SDS011;63257;55.082;38.772;2022-09-30T02:59:41;27.33;;;10.53;;
71947;SDS011;63257;55.082;38.772;2022-09-30T03:02:07;40.60;;;10.95;;
71947;SDS011;63257;55.082;38.772;2022-09-30T03:04:33;41.22;;;11.00;;
71947;SDS011;63257;55.082;38.772;2022-09-30T03:07:01;26.30;;;9.48;;
71947;SDS011;63257;55.082;38.772;2022-09-30T03:09:27;27.07;;;9.53;;
71947;SDS011;63257;55.082;38.772;2022-09-30T03:11:54;28.75;;;9.88;;
71947;SDS011;63257;55.082;38.772;2022-09-30T03:20:09;26.10;;;8.63;;
71947;SDS011;63257;55.082;38.772;2022-09-30T03:30:45;19.13;;;7.03;;
71947;SDS011;63257;55.082;38.772;2022-09-30T03:34:24;20.60;;;7.40;;
71947;SDS011;63257;55.082;38.772;2022-09-30T03:47:33;23.57;;;8.57;;
71947;SDS011;63257;55.082;38.772;2022-09-30T03:50:06;17.33;;;7.80;;
71947;SDS011;63257;55.082;38.772;2022-09-30T03:52:34;18.90;;;7.55;;
71947;SDS011;63257;55.082;38.772;2022-09-30T03:55:01;25.80;;;8.25;;
71947;SDS011;63257;55.082;38.772;2022-09-30T03:57:30;29.63;;;12.80;;
71947;SDS011;63257;55.082;38.772;2022-09-30T03:59:56;23.13;;;9.10;;
71947;SDS011;63257;55.082;38.772;2022-09-30T04:02:24;24.70;;;8.48;;
71947;SDS011;63257;55.082;38.772;2022-09-30T04:04:51;20.23;;;7.15;;
71947;SDS011;63257;55.082;38.772;2022-09-30T04:07:17;26.13;;;8.07;;
71947;SDS011;63257;55.082;38.772;2022-09-30T04:09:43;21.00;;;8.67;;
71947;SDS011;63257;55.082;38.772;2022-09-30T04:12:09;21.98;;;8.68;;
71947;SDS011;63257;55.082;38.772;2022-09-30T04:14:35;24.42;;;8.63;;
71947;SDS011;63257;55.082;38.772;2022-09-30T04:17:02;20.52;;;8.50;;
71947;SDS011;63257;55.082;38.772;2022-09-30T04:19:29;35.35;;;10.00;;
71947;SDS011;63257;55.082;38.772;2022-09-30T04:21:55;20.63;;;8.48;;
71947;SDS011;63257;55.082;38.772;2022-09-30T04:24:21;28.08;;;10.57;;
71947;SDS011;63257;55.082;38.772;2022-09-30T04:26:51;22.40;;;8.80;;
71947;SDS011;63257;55.082;38.772;2022-09-30T04:29:20;19.98;;;8.88;;
71947;SDS011;63257;55.082;38.772;2022-09-30T04:31:45;19.23;;;8.68;;
71947;SDS011;63257;55.082;38.772;2022-09-30T04:34:11;22.23;;;9.20;;
71947;SDS011;63257;55.082;38.772;2022-09-30T04:36:37;20.70;;;8.25;;
71947;SDS011;63257;55.082;38.772;2022-09-30T04:39:04;18.05;;;9.00;;
71947;SDS011;63257;55.082;38.772;2022-09-30T04:41:30;17.33;;;8.17;;
71947;SDS011;63257;55.082;38.772;2022-09-30T04:43:57;21.27;;;8.95;;
71947;SDS011;63257;55.082;38.772;2022-09-30T04:46:23;18.80;;;8.80;;
71947;SDS011;63257;55.082;38.772;2022-09-30T04:48:49;18.27;;;8.20;;
71947;SDS011;63257;55.082;38.772;2022-09-30T04:51:17;18.33;;;9.00;;
71947;SDS011;63257;55.082;38.772;2022-09-30T04:53:45;20.47;;;8.57;;
71947;SDS011;63257;55.082;38.772;2022-09-30T04:56:11;25.55;;;14.90;;
71947;SDS011;63257;55.082;38.772;2022-09-30T04:58:37;23.60;;;10.98;;
71947;SDS011;63257;55.082;38.772;2022-09-30T05:01:04;18.90;;;9.13;;
71947;SDS011;63257;55.082;38.772;2022-09-30T05:03:32;21.53;;;9.23;;
71947;SDS011;63257;55.082;38.772;2022-09-30T05:05:59;32.92;;;9.32;;
71947;SDS011;63257;55.082;38.772;2022-09-30T05:08:25;19.70;;;8.55;;
71947;SDS011;63257;55.082;38.772;2022-09-30T05:10:55;27.35;;;9.50;;
71947;SDS011;63257;55.082;38.772;2022-09-30T05:13:25;22.07;;;9.27;;
71947;SDS011;63257;55.082;38.772;2022-09-30T05:15:54;21.85;;;8.88;;
71947;SDS011;63257;55.082;38.772;2022-09-30T05:18:20;21.27;;;9.68;;
71947;SDS011;63257;55.082;38.772;2022-09-30T05:20:50;24.75;;;10.05;;
71947;SDS011;63257;55.082;38.772;2022-09-30T05:23:17;19.03;;;8.57;;
71947;SDS011;63257;55.082;38.772;2022-09-30T05:25:45;23.88;;;9.63;;
71947;SDS011;63257;55.082;38.772;2022-09-30T05:28:11;23.75;;;9.32;;
71947;SDS011;63257;55.082;38.772;2022-09-30T05:30:39;20.63;;;9.40;;
71947;SDS011;63257;55.082;38.772;2022-09-30T05:33:06;22.88;;;9.60;;
71947;SDS011;63257;55.082;38.772;2022-09-30T05:35:33;20.63;;;9.17;;
71947;SDS011;63257;55.082;38.772;2022-09-30T05:38:00;23.08;;;9.15;;
71947;SDS011;63257;55.082;38.772;2022-09-30T05:40:29;24.42;;;10.05;;
71947;SDS011;63257;55.082;38.772;2022-09-30T05:42:56;22.42;;;10.05;;
71947;SDS011;63257;55.082;38.772;2022-09-30T05:45:25;21.77;;;10.00;;
71947;SDS011;63257;55.082;38.772;2022-09-30T05:47:53;24.03;;;10.43;;
71947;SDS011;63257;55.082;38.772;2022-09-30T05:50:20;20.02;;;10.25;;
71947;SDS011;63257;55.082;38.772;2022-09-30T05:52:47;22.35;;;10.05;;
71947;SDS011;63257;55.082;38.772;2022-09-30T05:55:14;26.38;;;10.77;;
71947;SDS011;63257;55.082;38.772;2022-09-30T05:57:42;23.70;;;10.50;;
71947;SDS011;63257;55.082;38.772;2022-09-30T06:00:10;20.23;;;9.33;;
71947;SDS011;63257;55.082;38.772;2022-09-30T06:02:40;24.52;;;10.73;;
71947;SDS011;63257;55.082;38.772;2022-09-30T06:05:10;24.63;;;10.52;;
71947;SDS011;63257;55.082;38.772;2022-09-30T06:07:37;20.90;;;9.77;;
71947;SDS011;63257;55.082;38.772;2022-09-30T06:10:03;23.50;;;10.48;;
71947;SDS011;63257;55.082;38.772;2022-09-30T06:12:32;19.77;;;9.83;;
71947;SDS011;63257;55.082;38.772;2022-09-30T06:15:00;16.80;;;10.02;;
71947;SDS011;63257;55.082;38.772;2022-09-30T06:17:26;24.67;;;10.27;;
71947;SDS011;63257;55.082;38.772;2022-09-30T06:19:55;24.27;;;10.13;;
71947;SDS011;63257;55.082;38.772;2022-09-30T06:22:22;19.05;;;9.20;;
71947;SDS011;63257;55.082;38.772;2022-09-30T06:24:48;20.75;;;9.82;;
71947;SDS011;63257;55.082;38.772;2022-09-30T06:27:14;25.02;;;9.07;;
71947;SDS011;63257;55.082;38.772;2022-09-30T06:29:40;21.87;;;8.90;;
71947;SDS011;63257;55.082;38.772;2022-09-30T06:32:05;25.00;;;10.32;;
71947;SDS011;63257;55.082;38.772;2022-09-30T06:34:32;16.45;;;8.70;;
71947;SDS011;63257;55.082;38.772;2022-09-30T06:36:58;20.30;;;9.93;;
71947;SDS011;63257;55.082;38.772;2022-09-30T06:39:24;17.80;;;8.80;;
71947;SDS011;63257;55.082;38.772;2022-09-30T06:41:52;18.42;;;9.48;;
71947;SDS011;63257;55.082;38.772;2022-09-30T06:44:24;19.80;;;9.88;;
71947;SDS011;63257;55.082;38.772;2022-09-30T06:46:50;17.10;;;9.65;;
71947;SDS011;63257;55.082;38.772;2022-09-30T06:49:16;15.67;;;9.60;;
71947;SDS011;63257;55.082;38.772;2022-09-30T06:51:41;18.83;;;9.60;;
71947;SDS011;63257;55.082;38.772;2022-09-30T06:54:07;21.67;;;9.82;;
71947;SDS011;63257;55.082;38.772;2022-09-30T06:56:34;26.90;;;10.20;;
71947;SDS011;63257;55.082;38.772;2022-09-30T06:59:01;20.90;;;9.40;;
71947;SDS011;63257;55.082;38.772;2022-09-30T07:01:27;19.38;;;8.95;;
71947;SDS011;63257;55.082;38.772;2022-09-30T07:03:54;18.50;;;8.90;;
71947;SDS011;63257;55.082;38.772;2022-09-30T07:06:23;25.07;;;10.00;;
71947;SDS011;63257;55.082;38.772;2022-09-30T07:08:50;24.40;;;9.82;;
71947;SDS011;63257;55.082;38.772;2022-09-30T07:11:16;20.83;;;9.50;;
71947;SDS011;63257;55.082;38.772;2022-09-30T07:13:42;18.53;;;9.07;;
71947;SDS011;63257;55.082;38.772;2022-09-30T07:16:15;17.05;;;8.55;;
71947;SDS011;63257;55.082;38.772;2022-09-30T07:18:43;21.30;;;9.10;;
71947;SDS011;63257;55.082;38.772;2022-09-30T07:21:10;14.30;;;8.68;;
71947;SDS011;63257;55.082;38.772;2022-09-30T07:23:38;21.33;;;8.98;;
71947;SDS011;63257;55.082;38.772;2022-09-30T07:26:14;17.10;;;8.57;;
71947;SDS011;63257;55.082;38.772;2022-09-30T07:28:42;18.52;;;9.20;;
71947;SDS011;63257;55.082;38.772;2022-09-30T07:31:12;19.77;;;9.85;;
71947;SDS011;63257;55.082;38.772;2022-09-30T07:33:43;17.38;;;8.77;;
71947;SDS011;63257;55.082;38.772;2022-09-30T07:36:10;21.15;;;8.60;;
71947;SDS011;63257;55.082;38.772;2022-09-30T07:38:37;22.53;;;9.57;;
71947;SDS011;63257;55.082;38.772;2022-09-30T07:41:06;21.77;;;9.25;;
71947;SDS011;63257;55.082;38.772;2022-09-30T07:43:33;16.98;;;8.82;;
71947;SDS011;63257;55.082;38.772;2022-09-30T07:46:04;16.95;;;8.48;;
71947;SDS011;63257;55.082;38.772;2022-09-30T07:48:35;18.40;;;9.48;;
71947;SDS011;63257;55.082;38.772;2022-09-30T07:53:47;30.58;;;17.20;;
71947;SDS011;63257;55.082;38.772;2022-09-30T07:56:27;27.58;;;12.98;;
71947;SDS011;63257;55.082;38.772;2022-09-30T07:58:54;20.00;;;10.10;;
71947;SDS011;63257;55.082;38.772;2022-09-30T08:01:21;19.20;;;9.85;;
71947;SDS011;63257;55.082;38.772;2022-09-30T08:03:51;17.23;;;9.43;;
71947;SDS011;63257;55.082;38.772;2022-09-30T08:06:18;24.80;;;9.30;;
71947;SDS011;63257;55.082;38.772;2022-09-30T08:08:49;23.80;;;9.50;;
71947;SDS011;63257;55.082;38.772;2022-09-30T08:11:16;22.13;;;10.23;;
71947;SDS011;63257;55.082;38.772;2022-09-30T08:13:42;21.40;;;10.52;;
71947;SDS011;63257;55.082;38.772;2022-09-30T08:16:08;19.20;;;11.15;;
71947;SDS011;63257;55.082;38.772;2022-09-30T08:18:38;24.60;;;11.65;;
71947;SDS011;63257;55.082;38.772;2022-09-30T08:21:07;25.08;;;11.80;;
71947;SDS011;63257;55.082;38.772;2022-09-30T08:23:36;26.90;;;11.60;;
71947;SDS011;63257;55.082;38.772;2022-09-30T08:28:31;26.38;;;11.85;;
71947;SDS011;63257;55.082;38.772;2022-09-30T08:33:30;29.07;;;12.33;;
71947;SDS011;63257;55.082;38.772;2022-09-30T08:36:00;23.20;;;12.13;;
71947;SDS011;63257;55.082;38.772;2022-09-30T08:38:27;25.95;;;12.82;;
71947;SDS011;63257;55.082;38.772;2022-09-30T08:41:39;21.48;;;11.27;;
71947;SDS011;63257;55.082;38.772;2022-09-30T08:52:41;22.38;;;12.35;;
71947;SDS011;63257;55.082;38.772;2022-09-30T08:55:19;26.55;;;13.23;;
71947;SDS011;63257;55.082;38.772;2022-09-30T08:57:47;26.77;;;12.98;;
71947;SDS011;63257;55.082;38.772;2022-09-30T09:00:15;24.50;;;13.20;;
71947;SDS011;63257;55.082;38.772;2022-09-30T09:02:43;22.15;;;12.73;;
71947;SDS011;63257;55.082;38.772;2022-09-30T09:05:19;20.98;;;11.85;;
71947;SDS011;63257;55.082;38.772;2022-09-30T09:10:44;19.92;;;11.23;;
71947;SDS011;63257;55.082;38.772;2022-09-30T09:16:22;25.08;;;12.43;;
71947;SDS011;63257;55.082;38.772;2022-09-30T09:19:08;18.55;;;10.88;;
71947;SDS011;63257;55.082;38.772;2022-09-30T09:24:28;27.38;;;12.10;;
71947;SDS011;63257;55.082;38.772;2022-09-30T09:29:47;24.80;;;12.38;;
71947;SDS011;63257;55.082;38.772;2022-09-30T09:32:27;27.23;;;12.40;;
71947;SDS011;63257;55.082;38.772;2022-09-30T09:34:56;22.17;;;12.57;;
71947;SDS011;63257;55.082;38.772;2022-09-30T09:37:39;20.63;;;12.27;;
71947;SDS011;63257;55.082;38.772;2022-09-30T09:43:57;25.13;;;11.88;;
71947;SDS011;63257;55.082;38.772;2022-09-30T09:51:42;23.67;;;13.07;;
71947;SDS011;63257;55.082;38.772;2022-09-30T09:54:31;26.17;;;13.07;;
71947;SDS011;63257;55.082;38.772;2022-09-30T09:57:35;34.60;;;17.08;;
71947;SDS011;63257;55.082;38.772;2022-09-30T10:02:58;39.45;;;16.55;;
71947;SDS011;63257;55.082;38.772;2022-09-30T10:05:30;34.17;;;15.17;;
71947;SDS011;63257;55.082;38.772;2022-09-30T10:08:08;21.98;;;11.60;;
71947;SDS011;63257;55.082;38.772;2022-09-30T10:10:45;23.15;;;12.32;;
71947;SDS011;63257;55.082;38.772;2022-09-30T10:13:19;22.75;;;11.95;;
71947;SDS011;63257;55.082;38.772;2022-09-30T10:15:53;22.92;;;12.77;;
71947;SDS011;63257;55.082;38.772;2022-09-30T10:18:26;20.63;;;10.40;;
71947;SDS011;63257;55.082;38.772;2022-09-30T10:20:58;19.45;;;10.75;;
71947;SDS011;63257;55.082;38.772;2022-09-30T10:23:28;17.10;;;10.48;;
71947;SDS011;63257;55.082;38.772;2022-09-30T10:28:31;18.58;;;10.65;;
71947;SDS011;63257;55.082;38.772;2022-09-30T10:31:12;18.20;;;11.00;;
71947;SDS011;63257;55.082;38.772;2022-09-30T10:33:50;20.02;;;10.68;;
71947;SDS011;63257;55.082;38.772;2022-09-30T10:36:34;19.13;;;10.80;;
71947;SDS011;63257;55.082;38.772;2022-09-30T10:39:18;20.40;;;11.93;;
71947;SDS011;63257;55.082;38.772;2022-09-30T10:41:45;26.40;;;12.00;;
71947;SDS011;63257;55.082;38.772;2022-09-30T10:44:15;20.57;;;11.57;;
71947;SDS011;63257;55.082;38.772;2022-09-30T10:46:45;21.63;;;11.70;;
71947;SDS011;63257;55.082;38.772;2022-09-30T10:49:21;16.13;;;10.57;;
71947;SDS011;63257;55.082;38.772;2022-09-30T10:52:00;18.90;;;10.68;;
71947;SDS011;63257;55.082;38.772;2022-09-30T10:57:11;20.20;;;10.30;;
71947;SDS011;63257;55.082;38.772;2022-09-30T10:59:47;20.38;;;10.88;;
71947;SDS011;63257;55.082;38.772;2022-09-30T11:05:23;19.20;;;10.88;;
71947;SDS011;63257;55.082;38.772;2022-09-30T11:08:12;20.57;;;11.30;;
71947;SDS011;63257;55.082;38.772;2022-09-30T11:13:53;20.52;;;11.95;;
71947;SDS011;63257;55.082;38.772;2022-09-30T11:16:29;21.92;;;13.40;;
71947;SDS011;63257;55.082;38.772;2022-09-30T11:19:06;25.38;;;13.52;;
71947;SDS011;63257;55.082;38.772;2022-09-30T11:21:55;26.83;;;14.70;;
71947;SDS011;63257;55.082;38.772;2022-09-30T11:32:27;24.53;;;15.67;;
71947;SDS011;63257;55.082;38.772;2022-09-30T11:35:13;27.65;;;16.15;;
71947;SDS011;63257;55.082;38.772;2022-09-30T11:52:11;31.73;;;16.75;;
71947;SDS011;63257;55.082;38.772;2022-09-30T12:00:12;31.67;;;17.33;;
71947;SDS011;63257;55.082;38.772;2022-09-30T12:02:50;28.15;;;16.33;;
71947;SDS011;63257;55.082;38.772;2022-09-30T12:08:08;26.80;;;17.77;;
71947;SDS011;63257;55.082;38.772;2022-09-30T12:10:40;31.90;;;18.02;;
71947;SDS011;63257;55.082;38.772;2022-09-30T12:13:10;28.83;;;17.50;;
71947;SDS011;63257;55.082;38.772;2022-09-30T12:15:41;27.38;;;17.00;;
71947;SDS011;63257;55.082;38.772;2022-09-30T12:18:19;27.83;;;16.45;;
71947;SDS011;63257;55.082;38.772;2022-09-30T12:20:57;27.17;;;16.50;;
71947;SDS011;63257;55.082;38.772;2022-09-30T12:26:08;27.93;;;16.13;;
71947;SDS011;63257;55.082;38.772;2022-09-30T12:28:38;30.23;;;16.52;;
71947;SDS011;63257;55.082;38.772;2022-09-30T12:37:24;31.05;;;19.10;;
71947;SDS011;63257;55.082;38.772;2022-09-30T12:47:54;32.63;;;19.45;;
71947;SDS011;63257;55.082;38.772;2022-09-30T12:50:26;32.17;;;18.77;;
71947;SDS011;63257;55.082;38.772;2022-09-30T12:52:55;31.37;;;17.80;;
71947;SDS011;63257;55.082;38.772;2022-09-30T12:55:36;29.17;;;17.83;;
71947;SDS011;63257;55.082;38.772;2022-09-30T12:58:11;31.48;;;18.15;;
71947;SDS011;63257;55.082;38.772;2022-09-30T13:09:19;29.50;;;17.23;;
71947;SDS011;63257;55.082;38.772;2022-09-30T13:31:31;33.63;;;17.88;;
71947;SDS011;63257;55.082;38.772;2022-09-30T13:34:21;30.23;;;17.77;;
71947;SDS011;63257;55.082;38.772;2022-09-30T13:37:02;33.88;;;18.85;;
71947;SDS011;63257;55.082;38.772;2022-09-30T13:50:14;34.97;;;18.05;;
71947;SDS011;63257;55.082;38.772;2022-09-30T13:52:46;29.70;;;17.33;;
71947;SDS011;63257;55.082;38.772;2022-09-30T13:55:18;31.70;;;17.45;;
71947;SDS011;63257;55.082;38.772;2022-09-30T14:00:18;34.47;;;18.70;;
71947;SDS011;63257;55.082;38.772;2022-09-30T14:02:51;31.25;;;17.08;;
71947;SDS011;63257;55.082;38.772;2022-09-30T14:05:49;33.65;;;19.13;;
71947;SDS011;63257;55.082;38.772;2022-09-30T14:08:28;34.08;;;18.17;;
71947;SDS011;63257;55.082;38.772;2022-09-30T14:21:51;32.35;;;17.98;;
71947;SDS011;63257;55.082;38.772;2022-09-30T14:24:23;31.90;;;17.73;;
71947;SDS011;63257;55.082;38.772;2022-09-30T14:31:55;31.00;;;17.25;;
71947;SDS011;63257;55.082;38.772;2022-09-30T14:34:25;32.95;;;18.00;;
71947;SDS011;63257;55.082;38.772;2022-09-30T14:36:54;30.63;;;17.00;;
71947;SDS011;63257;55.082;38.772;2022-09-30T14:39:21;31.80;;;17.27;;
71947;SDS011;63257;55.082;38.772;2022-09-30T14:41:55;30.10;;;16.95;;
71947;SDS011;63257;55.082;38.772;2022-09-30T14:44:24;26.00;;;15.40;;
71947;SDS011;63257;55.082;38.772;2022-09-30T14:46:57;28.80;;;16.55;;
71947;SDS011;63257;55.082;38.772;2022-09-30T14:49:26;32.67;;;16.77;;
71947;SDS011;63257;55.082;38.772;2022-09-30T14:52:00;25.43;;;15.00;;
71947;SDS011;63257;55.082;38.772;2022-09-30T14:54:28;27.13;;;15.07;;
71947;SDS011;63257;55.082;38.772;2022-09-30T14:56:58;25.92;;;15.43;;
71947;SDS011;63257;55.082;38.772;2022-09-30T14:59:28;25.50;;;14.77;;
71947;SDS011;63257;55.082;38.772;2022-09-30T15:02:17;26.92;;;14.77;;
71947;SDS011;63257;55.082;38.772;2022-09-30T15:04:51;24.90;;;13.90;;
71947;SDS011;63257;55.082;38.772;2022-09-30T15:07:20;24.05;;;13.70;;
71947;SDS011;63257;55.082;38.772;2022-09-30T15:09:46;22.02;;;13.27;;
71947;SDS011;63257;55.082;38.772;2022-09-30T15:12:15;23.05;;;13.18;;
71947;SDS011;63257;55.082;38.772;2022-09-30T15:14:48;22.05;;;12.73;;
71947;SDS011;63257;55.082;38.772;2022-09-30T15:17:26;22.80;;;12.80;;
71947;SDS011;63257;55.082;38.772;2022-09-30T15:20:00;21.45;;;12.48;;
71947;SDS011;63257;55.082;38.772;2022-09-30T15:22:28;21.15;;;13.43;;
71947;SDS011;63257;55.082;38.772;2022-09-30T15:24:55;23.13;;;13.65;;
71947;SDS011;63257;55.082;38.772;2022-09-30T15:27:30;28.58;;;15.40;;
71947;SDS011;63257;55.082;38.772;2022-09-30T15:30:00;25.43;;;14.77;;
71947;SDS011;63257;55.082;38.772;2022-09-30T15:32:31;27.05;;;15.10;;
71947;SDS011;63257;55.082;38.772;2022-09-30T15:35:13;24.65;;;13.70;;
71947;SDS011;63257;55.082;38.772;2022-09-30T15:37:43;24.50;;;13.60;;
71947;SDS011;63257;55.082;38.772;2022-09-30T15:40:13;24.80;;;14.23;;
71947;SDS011;63257;55.082;38.772;2022-09-30T15:43:10;23.00;;;13.70;;
71947;SDS011;63257;55.082;38.772;2022-09-30T15:45:41;24.15;;;13.30;;
71947;SDS011;63257;55.082;38.772;2022-09-30T15:50:38;23.75;;;13.85;;
71947;SDS011;63257;55.082;38.772;2022-09-30T15:53:19;25.95;;;14.13;;
71947;SDS011;63257;55.082;38.772;2022-09-30T15:55:54;22.23;;;13.27;;
71947;SDS011;63257;55.082;38.772;2022-09-30T16:00:52;29.20;;;15.80;;
71947;SDS011;63257;55.082;38.772;2022-09-30T16:03:33;25.17;;;14.30;;
71947;SDS011;63257;55.082;38.772;2022-09-30T16:06:06;27.23;;;14.48;;
71947;SDS011;63257;55.082;38.772;2022-09-30T16:08:44;28.73;;;16.23;;
71947;SDS011;63257;55.082;38.772;2022-09-30T16:11:17;25.50;;;14.25;;
71947;SDS011;63257;55.082;38.772;2022-09-30T16:13:52;27.92;;;14.38;;
71947;SDS011;63257;55.082;38.772;2022-09-30T16:16:31;26.98;;;15.02;;
71947;SDS011;63257;55.082;38.772;2022-09-30T16:19:02;26.25;;;14.48;;
71947;SDS011;63257;55.082;38.772;2022-09-30T16:21:35;24.93;;;14.23;;
71947;SDS011;63257;55.082;38.772;2022-09-30T16:26:56;25.00;;;14.52;;
71947;SDS011;63257;55.082;38.772;2022-09-30T16:29:25;25.90;;;14.85;;
71947;SDS011;63257;55.082;38.772;2022-09-30T16:31:54;25.45;;;14.75;;
71947;SDS011;63257;55.082;38.772;2022-09-30T16:36:52;27.63;;;15.48;;
71947;SDS011;63257;55.082;38.772;2022-09-30T16:39:20;25.58;;;14.77;;
71947;SDS011;63257;55.082;38.772;2022-09-30T16:41:46;27.27;;;15.60;;
71947;SDS011;63257;55.082;38.772;2022-09-30T16:44:12;26.08;;;14.70;;
71947;SDS011;63257;55.082;38.772;2022-09-30T16:46:38;22.50;;;13.93;;
71947;SDS011;63257;55.082;38.772;2022-09-30T16:49:15;24.23;;;13.98;;
71947;SDS011;63257;55.082;38.772;2022-09-30T16:51:42;25.25;;;14.02;;
71947;SDS011;63257;55.082;38.772;2022-09-30T16:54:09;25.95;;;13.77;;
71947;SDS011;63257;55.082;38.772;2022-09-30T16:56:38;22.77;;;13.33;;
71947;SDS011;63257;55.082;38.772;2022-09-30T16:59:11;26.60;;;14.70;;
71947;SDS011;63257;55.082;38.772;2022-09-30T17:01:38;24.20;;;14.32;;
71947;SDS011;63257;55.082;38.772;2022-09-30T17:04:05;26.17;;;14.68;;
71947;SDS011;63257;55.082;38.772;2022-09-30T17:06:32;28.17;;;15.65;;
71947;SDS011;63257;55.082;38.772;2022-09-30T17:08:59;28.17;;;15.17;;
71947;SDS011;63257;55.082;38.772;2022-09-30T17:11:33;28.02;;;15.20;;
71947;SDS011;63257;55.082;38.772;2022-09-30T17:14:00;26.75;;;14.75;;
71947;SDS011;63257;55.082;38.772;2022-09-30T17:16:29;28.95;;;18.83;;
71947;SDS011;63257;55.082;38.772;2022-09-30T17:18:55;28.55;;;17.63;;
71947;SDS011;63257;55.082;38.772;2022-09-30T17:21:23;23.03;;;13.93;;
71947;SDS011;63257;55.082;38.772;2022-09-30T17:23:50;26.23;;;14.88;;
71947;SDS011;63257;55.082;38.772;2022-09-30T17:26:17;26.30;;;14.50;;
71947;SDS011;63257;55.082;38.772;2022-09-30T17:28:43;25.50;;;14.35;;
71947;SDS011;63257;55.082;38.772;2022-09-30T17:31:09;27.97;;;15.43;;
71947;SDS011;63257;55.082;38.772;2022-09-30T17:33:36;28.58;;;16.02;;
71947;SDS011;63257;55.082;38.772;2022-09-30T17:36:05;26.85;;;15.73;;
71947;SDS011;63257;55.082;38.772;2022-09-30T17:38:34;27.05;;;15.20;;
71947;SDS011;63257;55.082;38.772;2022-09-30T17:41:00;26.85;;;15.00;;
71947;SDS011;63257;55.082;38.772;2022-09-30T17:43:50;25.83;;;14.90;;
71947;SDS011;63257;55.082;38.772;2022-09-30T17:46:16;26.65;;;15.20;;
71947;SDS011;63257;55.082;38.772;2022-09-30T17:48:45;25.35;;;14.50;;
71947;SDS011;63257;55.082;38.772;2022-09-30T17:51:11;26.45;;;14.18;;
71947;SDS011;63257;55.082;38.772;2022-09-30T17:53:41;28.00;;;15.63;;
71947;SDS011;63257;55.082;38.772;2022-09-30T17:56:15;24.35;;;13.90;;
71947;SDS011;63257;55.082;38.772;2022-09-30T17:58:44;27.90;;;15.63;;
71947;SDS011;63257;55.082;38.772;2022-09-30T18:01:17;26.10;;;15.48;;
71947;SDS011;63257;55.082;38.772;2022-09-30T18:03:45;27.02;;;14.05;;
71947;SDS011;63257;55.082;38.772;2022-09-30T18:06:11;25.80;;;14.43;;
71947;SDS011;63257;55.082;38.772;2022-09-30T18:08:41;30.08;;;16.50;;
71947;SDS011;63257;55.082;38.772;2022-09-30T18:11:07;29.88;;;16.00;;
71947;SDS011;63257;55.082;38.772;2022-09-30T18:13:33;29.55;;;16.10;;
71947;SDS011;63257;55.082;38.772;2022-09-30T18:15:59;28.90;;;16.30;;
71947;SDS011;63257;55.082;38.772;2022-09-30T18:18:30;28.25;;;16.05;;
71947;SDS011;63257;55.082;38.772;2022-09-30T18:20:59;27.95;;;16.17;;
71947;SDS011;63257;55.082;38.772;2022-09-30T18:23:25;33.10;;;16.90;;
71947;SDS011;63257;55.082;38.772;2022-09-30T18:25:50;31.40;;;16.97;;
71947;SDS011;63257;55.082;38.772;2022-09-30T18:28:19;30.08;;;16.00;;